createdAt,value
2022-12-24T00:01:44.566Z,99522.48
2022-12-24T00:04:17.418Z,99522.38
2022-12-24T00:06:49.788Z,99518.02
2022-12-24T00:09:22.579Z,99522.70
2022-12-24T00:11:56.559Z,99525.39
2022-12-24T00:14:29.802Z,99524.58
2022-12-24T00:17:02.513Z,99526.03
2022-12-24T00:19:35.097Z,99526.41
2022-12-24T00:22:07.446Z,99527.13
2022-12-24T00:24:39.855Z,99532.92
2022-12-24T00:27:12.211Z,99523.89
2022-12-24T00:29:45.851Z,99523.98
2022-12-24T00:32:18.528Z,99523.59
2022-12-24T00:34:51.278Z,99522.02
2022-12-24T00:37:23.635Z,99521.67
2022-12-24T00:39:56.109Z,99502.22
2022-12-24T00:42:28.884Z,99506.80
2022-12-24T00:45:01.473Z,99487.55
2022-12-24T00:47:34.152Z,99498.34
2022-12-24T00:50:07.948Z,99499.23
2022-12-24T00:52:40.467Z,99501.85
2022-12-24T00:55:13.378Z,99504.21
2022-12-24T00:57:45.877Z,99497.70
2022-12-24T01:00:19.204Z,99499.54
2022-12-24T01:02:52.027Z,99504.38
2022-12-24T01:05:24.879Z,99501.85
2022-12-24T01:07:57.301Z,99500.39
2022-12-24T01:10:29.760Z,99503.19
2022-12-24T01:13:04.424Z,99502.39
2022-12-24T01:15:35.205Z,99507.39
2022-12-24T01:18:07.884Z,99506.77
2022-12-24T01:20:40.315Z,99504.40
2022-12-24T01:23:13.310Z,99502.26
2022-12-24T01:25:46.106Z,99506.13
2022-12-24T01:28:18.561Z,99503.85
2022-12-24T01:30:51.642Z,99507.85
2022-12-24T01:33:24.349Z,99507.60
2022-12-24T01:35:56.795Z,99506.54
2022-12-24T01:38:29.190Z,99503.38
2022-12-24T01:41:19.008Z,99487.20
2022-12-24T01:43:51.820Z,99503.80
2022-12-24T01:46:28.728Z,99503.44
2022-12-24T01:49:04.104Z,99497.73
2022-12-24T01:51:40.049Z,99504.20
2022-12-24T01:54:15.949Z,99502.28
2022-12-24T01:56:52.045Z,99495.21
2022-12-24T01:59:25.950Z,99501.52
2022-12-24T02:01:58.986Z,99499.70
2022-12-24T02:04:38.261Z,99496.78
2022-12-24T02:07:10.946Z,99494.72
2022-12-24T02:09:43.773Z,99498.30
2022-12-24T02:12:17.083Z,99501.09
2022-12-24T02:14:49.846Z,99503.54
2022-12-24T02:17:31.502Z,99501.31
2022-12-24T02:20:37.498Z,99502.34
2022-12-24T02:23:33.517Z,99478.28
2022-12-24T02:26:28.403Z,99495.33
2022-12-24T02:29:19.667Z,99498.27
2022-12-24T02:31:55.185Z,99500.33
2022-12-24T02:34:31.609Z,99499.62
2022-12-24T02:37:07.984Z,99505.70
2022-12-24T02:39:46.960Z,99500.73
2022-12-24T02:42:23.542Z,99500.41
2022-12-24T02:45:03.062Z,99505.70
2022-12-24T02:47:36.573Z,99506.79
2022-12-24T02:50:11.905Z,99504.11
2022-12-24T02:52:46.602Z,99504.61
2022-12-24T02:55:22.259Z,99501.39
2022-12-24T02:58:21.428Z,99501.99
2022-12-24T03:01:16.574Z,99507.40
2022-12-24T03:04:08.696Z,99510.52
2022-12-24T03:06:49.165Z,99514.10
2022-12-24T03:09:28.089Z,99519.70
2022-12-24T03:12:05.080Z,99517.56
2022-12-24T03:14:38.543Z,99523.77
2022-12-24T03:17:12.283Z,99521.05
2022-12-24T03:19:45.005Z,99522.53
2022-12-24T03:22:19.555Z,99519.23
2022-12-24T03:24:52.080Z,99521.52
2022-12-24T03:27:26.706Z,99523.34
2022-12-24T03:29:59.549Z,99524.11
2022-12-24T03:32:33.606Z,99526.36
2022-12-24T03:35:06.372Z,99525.41
2022-12-24T03:37:39.968Z,99531.20
2022-12-24T03:40:13.515Z,99532.47
2022-12-24T03:42:45.988Z,99533.57
2022-12-24T03:45:18.983Z,99529.48
2022-12-24T03:47:51.800Z,99530.44
2022-12-24T03:50:24.356Z,99534.23
2022-12-24T03:52:57.806Z,99535.56
2022-12-24T03:55:30.211Z,99527.15
2022-12-24T03:58:02.539Z,99547.66
2022-12-24T04:00:34.965Z,99551.16
2022-12-24T04:03:07.533Z,99557.04
2022-12-24T04:05:40.068Z,99557.18
2022-12-24T04:08:12.432Z,99555.85
2022-12-24T04:10:44.779Z,99555.67
2022-12-24T04:13:17.274Z,99551.11
2022-12-24T04:15:59.556Z,99548.86
2022-12-24T04:18:32.753Z,99547.88
2022-12-24T04:21:05.501Z,99557.31
2022-12-24T04:23:40.890Z,99564.61
2022-12-24T04:26:14.690Z,99566.11
2022-12-24T04:28:47.079Z,99567.35
2022-12-24T04:31:20.561Z,99567.52
2022-12-24T04:33:54.403Z,99564.59
2022-12-24T04:36:27.002Z,99564.70
2022-12-24T04:39:00.188Z,99569.44
2022-12-24T04:41:33.196Z,99574.95
2022-12-24T04:44:05.696Z,99578.92
2022-12-24T04:46:37.977Z,99577.23
2022-12-24T04:49:10.689Z,99572.30
2022-12-24T04:51:42.999Z,99573.72
2022-12-24T04:54:16.688Z,99573.83
2022-12-24T04:56:49.100Z,99565.27
2022-12-24T04:59:21.836Z,99583.69
2022-12-24T05:01:54.457Z,99590.15
2022-12-24T05:04:27.063Z,99587.52
2022-12-24T05:06:59.778Z,99590.63
2022-12-24T05:09:32.799Z,99588.58
2022-12-24T05:12:05.694Z,99603.52
2022-12-24T05:14:38.497Z,99604.17
2022-12-24T05:17:11.144Z,99605.41
2022-12-24T05:19:43.787Z,99608.89
2022-12-24T05:22:33.614Z,99613.48
2022-12-24T05:25:24.253Z,99614.52
2022-12-24T05:27:56.960Z,99615.46
2022-12-24T05:30:29.922Z,99612.09
2022-12-24T05:33:02.472Z,99615.75
2022-12-24T05:35:34.813Z,99618.85
2022-12-24T05:38:07.381Z,99625.58
2022-12-24T05:40:39.832Z,99629.63
2022-12-24T05:43:12.433Z,99634.88
2022-12-24T05:45:44.958Z,99636.35
2022-12-24T05:48:17.294Z,99638.25
2022-12-24T05:50:50.817Z,99637.61
2022-12-24T05:53:23.871Z,99643.96
2022-12-24T05:55:56.359Z,99653.20
2022-12-24T05:58:30.162Z,99653.58
2022-12-24T06:01:04.430Z,99661.59
2022-12-24T06:03:37.793Z,99660.68
2022-12-24T06:06:12.656Z,99669.77
2022-12-24T06:08:45.284Z,99667.68
2022-12-24T06:11:19.970Z,99667.93
2022-12-24T06:13:51.164Z,99671.73
2022-12-24T06:16:25.523Z,99676.65
2022-12-24T06:18:58.068Z,99674.06
2022-12-24T06:21:30.594Z,99679.00
2022-12-24T06:24:03.663Z,99682.60
2022-12-24T06:26:36.751Z,99687.36
2022-12-24T06:29:10.304Z,99684.70
2022-12-24T06:31:42.890Z,99687.36
2022-12-24T06:34:15.276Z,99690.92
2022-12-24T06:36:47.734Z,99697.80
2022-12-24T06:39:20.283Z,99701.13
2022-12-24T06:41:52.900Z,99702.85
2022-12-24T06:44:26.548Z,99707.95
2022-12-24T06:46:59.242Z,99713.14
2022-12-24T06:49:31.767Z,99722.35
2022-12-24T06:52:04.315Z,99725.13
2022-12-24T06:54:40.191Z,99731.53
2022-12-24T06:57:18.511Z,99732.90
2022-12-24T06:59:51.104Z,99745.81
2022-12-24T07:02:24.406Z,99750.17
2022-12-24T07:04:56.947Z,99756.91
2022-12-24T07:07:29.367Z,99751.48
2022-12-24T07:10:01.876Z,99756.27
2022-12-24T07:12:34.252Z,99729.34
2022-12-24T07:15:07.878Z,99766.09
2022-12-24T07:17:40.410Z,99774.33
2022-12-24T07:20:16.139Z,99782.31
2022-12-24T07:22:48.673Z,99792.90
2022-12-24T07:25:21.087Z,99794.55
2022-12-24T07:27:53.713Z,99766.08
2022-12-24T07:30:26.046Z,99801.35
2022-12-24T07:32:58.587Z,99802.32
2022-12-24T07:35:31.032Z,99804.66
2022-12-24T07:38:04.352Z,99804.43
2022-12-24T07:40:37.841Z,99796.20
2022-12-24T07:43:10.609Z,99813.10
2022-12-24T07:45:43.612Z,99816.20
2022-12-24T07:48:16.342Z,99824.52
2022-12-24T07:50:50.002Z,99833.41
2022-12-24T07:53:22.550Z,99838.91
2022-12-24T07:55:55.440Z,99838.58
2022-12-24T07:58:28.989Z,99848.11
2022-12-24T08:01:02.536Z,99851.80
2022-12-24T08:03:35.255Z,99857.39
2022-12-24T08:06:09.009Z,99859.34
2022-12-24T08:08:41.432Z,99864.21
2022-12-24T08:11:14.014Z,99870.23
2022-12-24T08:13:46.672Z,99870.46
2022-12-24T08:16:32.764Z,99876.75
2022-12-24T08:19:14.813Z,99875.45
2022-12-24T08:21:53.225Z,99879.62
2022-12-24T08:24:32.506Z,99878.36
2022-12-24T08:27:06.535Z,99881.84
2022-12-24T08:29:39.330Z,99887.39
2022-12-24T08:32:11.718Z,99886.36
2022-12-24T08:34:44.281Z,99889.66
2022-12-24T08:37:16.620Z,99897.67
2022-12-24T08:39:49.073Z,99901.40
2022-12-24T08:42:21.969Z,99910.64
2022-12-24T08:44:54.393Z,99915.60
2022-12-24T08:47:26.760Z,99912.95
2022-12-24T08:49:59.238Z,99904.63
2022-12-24T08:52:31.596Z,99919.41
2022-12-24T08:55:05.166Z,99929.85
2022-12-24T08:57:39.660Z,99931.83
2022-12-24T09:00:13.558Z,99936.81
2022-12-24T09:02:46.363Z,99939.88
2022-12-24T09:05:19.461Z,99937.21
2022-12-24T09:07:52.286Z,99935.11
2022-12-24T09:10:24.780Z,99938.77
2022-12-24T09:12:57.156Z,99940.88
2022-12-24T09:15:29.909Z,99940.85
2022-12-24T09:18:03.942Z,99932.84
2022-12-24T09:20:36.660Z,99948.04
2022-12-24T09:23:09.114Z,99951.84
2022-12-24T09:25:45.862Z,99954.39
2022-12-24T09:28:18.434Z,99954.64
2022-12-24T09:31:03.146Z,99956.61
2022-12-24T09:33:38.758Z,99964.55
2022-12-24T09:36:12.229Z,99969.79
2022-12-24T09:38:44.891Z,99979.49
2022-12-24T09:41:25.957Z,99981.13
2022-12-24T09:44:02.421Z,99980.49
2022-12-24T09:46:37.450Z,99982.94
2022-12-24T09:49:16.142Z,99983.73
2022-12-24T09:51:52.673Z,99989.63
2022-12-24T09:54:28.489Z,99993.86
2022-12-24T09:57:06.791Z,99985.77
2022-12-24T09:59:45.242Z,99996.72
2022-12-24T10:02:20.461Z,99998.12
2022-12-24T10:04:53.360Z,99985.88
2022-12-24T10:07:41.075Z,100007.43
2022-12-24T10:10:22.525Z,100008.33
2022-12-24T10:13:04.580Z,100023.69
2022-12-24T10:15:42.227Z,100026.00
2022-12-24T10:18:27.657Z,100009.88
2022-12-24T10:21:07.483Z,100028.04
2022-12-24T10:23:45.871Z,100028.75
2022-12-24T10:26:24.489Z,100035.04
2022-12-24T10:29:01.901Z,100039.44
2022-12-24T10:31:46.806Z,100037.29
2022-12-24T10:34:21.242Z,100039.52
2022-12-24T10:36:54.108Z,100043.89
2022-12-24T10:39:28.572Z,100041.00
2022-12-24T10:42:02.699Z,100044.05
2022-12-24T10:44:36.153Z,100047.00
2022-12-24T10:47:10.805Z,100055.09
2022-12-24T10:49:50.373Z,100046.89
2022-12-24T10:52:27.247Z,100061.02
2022-12-24T10:55:25.126Z,100064.51
2022-12-24T10:58:07.247Z,100066.81
2022-12-24T11:00:42.348Z,100066.27
2022-12-24T11:03:23.688Z,100072.48
2022-12-24T11:06:12.061Z,100072.21
2022-12-24T11:08:47.766Z,100038.14
2022-12-24T11:11:23.665Z,100074.39
2022-12-24T11:13:58.839Z,100075.38
2022-12-24T11:16:34.491Z,100077.70
2022-12-24T11:19:18.742Z,100076.23
2022-12-24T11:21:59.723Z,100082.94
2022-12-24T11:24:38.958Z,100088.95
2022-12-24T11:27:40.717Z,100087.17
2022-12-24T11:30:23.749Z,100078.13
2022-12-24T11:33:21.237Z,100091.78
2022-12-24T11:35:58.771Z,100095.89
2022-12-24T11:38:34.044Z,100094.76
2022-12-24T11:41:11.597Z,100091.52
2022-12-24T11:44:07.112Z,100094.45
2022-12-24T11:46:42.629Z,100083.29
2022-12-24T11:49:25.641Z,100109.70
2022-12-24T11:52:25.843Z,100115.53
2022-12-24T11:55:22.633Z,100119.77
2022-12-24T11:58:01.672Z,100124.81
2022-12-24T12:00:34.474Z,100126.89
2022-12-24T12:03:13.320Z,100130.00
2022-12-24T12:05:46.369Z,100131.48
2022-12-24T12:08:22.859Z,100135.13
2022-12-24T12:10:58.094Z,100124.05
2022-12-24T12:13:34.236Z,100143.05
2022-12-24T12:16:18.458Z,100146.73
2022-12-24T12:18:58.332Z,100144.14
2022-12-24T12:21:40.634Z,100147.25
2022-12-24T12:24:20.726Z,100152.45
2022-12-24T12:27:05.542Z,100151.93
2022-12-24T12:29:44.697Z,100152.58
2022-12-24T12:32:25.781Z,100155.41
2022-12-24T12:35:05.667Z,100154.95
2022-12-24T12:37:41.928Z,100156.93
2022-12-24T12:40:18.538Z,100158.97
2022-12-24T12:43:01.226Z,100159.73
2022-12-24T12:45:44.893Z,100160.05
2022-12-24T12:48:33.882Z,100160.80
2022-12-24T12:51:16.788Z,100168.05
2022-12-24T12:54:00.173Z,100171.74
2022-12-24T12:56:35.633Z,100168.36
2022-12-24T12:59:16.740Z,100178.83
2022-12-24T13:01:59.338Z,100186.73
2022-12-24T13:05:07.345Z,100190.84
2022-12-24T13:08:01.444Z,100197.02
2022-12-24T13:11:00.147Z,100194.82
2022-12-24T13:13:58.157Z,100200.81
2022-12-24T13:17:03.061Z,100205.37
2022-12-24T13:20:06.120Z,100213.08
2022-12-24T13:22:39.326Z,100217.39
2022-12-24T13:25:27.343Z,100218.48
2022-12-24T13:28:15.983Z,100213.44
2022-12-24T13:30:49.254Z,100215.95
2022-12-24T13:33:50.779Z,100215.76
2022-12-24T13:36:24.652Z,100214.50
2022-12-24T13:38:58.819Z,100227.61
2022-12-24T13:41:53.192Z,100227.62
2022-12-24T13:44:34.734Z,100231.50
2022-12-24T13:47:28.357Z,100231.27
2022-12-24T13:50:23.876Z,100232.54
2022-12-24T13:52:57.040Z,100227.27
2022-12-24T13:55:30.031Z,100228.47
2022-12-24T13:58:06.747Z,100234.73
2022-12-24T14:00:52.800Z,100233.57
2022-12-24T14:03:37.939Z,100237.23
2022-12-24T14:06:11.191Z,100244.71
2022-12-24T14:08:47.958Z,100248.96
2022-12-24T14:11:23.352Z,100245.59
2022-12-24T14:14:10.725Z,100249.74
2022-12-24T14:16:50.024Z,100254.66
2022-12-24T14:19:25.902Z,100260.45
2022-12-24T14:22:07.440Z,100246.27
2022-12-24T14:24:43.560Z,100269.25
2022-12-24T14:27:21.820Z,100275.09
2022-12-24T14:30:01.572Z,100278.77
2022-12-24T14:32:38.849Z,100284.35
2022-12-24T14:35:18.700Z,100283.72
2022-12-24T14:37:59.133Z,100281.74
2022-12-24T14:40:34.047Z,100286.59
2022-12-24T14:43:15.531Z,100285.00
2022-12-24T14:45:55.573Z,100293.88
2022-12-24T14:48:35.736Z,100297.93
2022-12-24T14:51:16.546Z,100299.39
2022-12-24T14:54:14.591Z,100254.53
2022-12-24T14:56:47.283Z,100302.14
2022-12-24T14:59:22.206Z,100307.41
2022-12-24T15:01:54.902Z,100315.85
2022-12-24T15:04:27.350Z,100318.69
2022-12-24T15:07:03.855Z,100309.02
2022-12-24T15:09:40.101Z,100329.56
2022-12-24T15:12:15.685Z,100331.71
2022-12-24T15:14:48.789Z,100332.52
2022-12-24T15:17:21.734Z,100333.16
2022-12-24T15:19:56.785Z,100333.27
2022-12-24T15:22:32.544Z,100334.55
2022-12-24T15:25:05.411Z,100342.01
2022-12-24T15:27:41.765Z,100329.30
2022-12-24T15:30:20.571Z,100353.88
2022-12-24T15:32:56.488Z,100358.90
2022-12-24T15:35:52.188Z,100354.20
2022-12-24T15:38:32.328Z,100352.35
2022-12-24T15:41:07.912Z,100376.27
2022-12-24T15:43:44.366Z,100364.73
2022-12-24T15:46:25.934Z,100382.23
2022-12-24T15:49:01.700Z,100388.55
2022-12-24T15:51:40.233Z,100369.50
2022-12-24T15:54:21.893Z,100390.94
2022-12-24T15:56:54.755Z,100394.77
2022-12-24T15:59:36.853Z,100395.95
2022-12-24T16:02:43.257Z,100391.54
2022-12-24T16:05:31.931Z,100394.30
2022-12-24T16:08:10.204Z,100381.34
2022-12-24T16:10:45.928Z,100399.86
2022-12-24T16:13:22.489Z,100401.07
2022-12-24T16:15:59.242Z,100406.52
2022-12-24T16:18:37.678Z,100403.73
2022-12-24T16:21:10.654Z,100400.45
2022-12-24T16:23:52.097Z,100405.65
2022-12-24T16:26:25.530Z,100413.65
2022-12-24T16:28:59.500Z,100415.23
2022-12-24T16:31:39.081Z,100414.61
2022-12-24T16:34:17.189Z,100420.61
2022-12-24T16:36:49.737Z,100419.41
2022-12-24T16:39:28.589Z,100416.70
2022-12-24T16:42:20.620Z,100419.40
2022-12-24T16:44:55.682Z,100420.02
2022-12-24T16:47:33.648Z,100415.98
2022-12-24T16:50:09.421Z,100417.84
2022-12-24T16:52:41.778Z,100423.44
2022-12-24T16:55:17.479Z,100423.54
2022-12-24T16:57:50.056Z,100430.02
2022-12-24T17:00:25.737Z,100432.73
2022-12-24T17:02:58.373Z,100439.92
2022-12-24T17:05:31.417Z,100422.39
2022-12-24T17:08:04.448Z,100437.23
2022-12-24T17:10:37.092Z,100445.63
2022-12-24T17:13:09.869Z,100448.15
2022-12-24T17:15:44.468Z,100447.83
2022-12-24T17:18:15.247Z,100452.68
2022-12-24T17:20:58.377Z,100456.37
2022-12-24T17:23:31.176Z,100453.19
2022-12-24T17:26:10.728Z,100459.96
2022-12-24T17:28:45.769Z,100463.16
2022-12-24T17:31:20.164Z,100473.18
2022-12-24T17:33:52.712Z,100474.61
2022-12-24T17:36:25.053Z,100478.32
2022-12-24T17:38:57.894Z,100478.95
2022-12-24T17:41:30.234Z,100478.19
2022-12-24T17:44:04.952Z,100474.11
2022-12-24T17:46:35.963Z,100477.79
2022-12-24T17:49:08.495Z,100482.89
2022-12-24T17:51:45.276Z,100486.02
2022-12-24T17:54:18.791Z,100491.30
2022-12-24T17:56:51.505Z,100495.10
2022-12-24T17:59:24.170Z,100495.97
2022-12-24T18:01:56.756Z,100499.83
2022-12-24T18:04:29.238Z,100504.61
2022-12-24T18:07:03.259Z,100508.57
2022-12-24T18:09:35.853Z,100508.94
2022-12-24T18:12:08.922Z,100502.48
2022-12-24T18:14:41.843Z,100515.53
2022-12-24T18:17:14.166Z,100508.61
2022-12-24T18:19:46.582Z,100506.78
2022-12-24T18:22:19.259Z,100507.38
2022-12-24T18:24:51.892Z,100515.16
2022-12-24T18:27:24.423Z,100519.70
2022-12-24T18:29:57.354Z,100521.75
2022-12-24T18:32:29.788Z,100524.77
2022-12-24T18:35:02.348Z,100528.98
2022-12-24T18:37:35.575Z,100532.41
2022-12-24T18:40:11.717Z,100515.35
2022-12-24T18:42:44.855Z,100523.98
2022-12-24T18:45:17.467Z,100529.46
2022-12-24T18:47:50.113Z,100532.91
2022-12-24T18:50:22.692Z,100535.42
2022-12-24T18:52:55.548Z,100530.45
2022-12-24T18:55:28.273Z,100530.44
2022-12-24T18:58:01.005Z,100528.73
2022-12-24T19:00:33.905Z,100519.08
2022-12-24T19:03:07.133Z,100533.67
2022-12-24T19:05:39.837Z,100537.52
2022-12-24T19:11:04.809Z,100547.20
2022-12-24T19:13:37.303Z,100546.34
2022-12-24T19:16:11.575Z,100549.61
2022-12-24T19:18:44.495Z,100557.66
2022-12-24T19:21:18.568Z,100542.25
2022-12-24T19:23:51.903Z,100566.67
2022-12-24T19:26:24.848Z,100549.45
2022-12-24T19:28:57.624Z,100567.86
2022-12-24T19:31:30.079Z,100565.79
2022-12-24T19:34:03.114Z,100567.50
2022-12-24T19:36:35.669Z,100564.60
2022-12-24T19:39:08.084Z,100570.46
2022-12-24T19:41:41.048Z,100549.10
2022-12-24T19:44:13.846Z,100578.27
2022-12-24T19:46:46.501Z,100584.20
2022-12-24T19:49:18.961Z,100573.16
2022-12-24T19:51:51.309Z,100585.52
2022-12-24T19:54:24.014Z,100596.63
2022-12-24T19:56:56.382Z,100595.45
2022-12-24T19:59:29.092Z,100597.45
2022-12-24T20:02:01.865Z,100602.27
2022-12-24T20:04:34.500Z,100600.84
2022-12-24T20:07:07.253Z,100601.78
2022-12-24T20:09:40.206Z,100603.91
2022-12-24T20:12:12.538Z,100610.71
2022-12-24T20:14:45.007Z,100597.24
2022-12-24T20:17:17.616Z,100612.33
2022-12-24T20:19:50.192Z,100607.86
2022-12-24T20:22:23.143Z,100602.71
2022-12-24T20:24:55.720Z,100620.38
2022-12-24T20:27:28.553Z,100618.34
2022-12-24T20:30:01.131Z,100621.98
2022-12-24T20:32:33.903Z,100617.89
2022-12-24T20:35:07.716Z,100621.90
2022-12-24T20:37:45.975Z,100623.13
2022-12-24T20:40:19.245Z,100616.15
2022-12-24T20:42:54.222Z,100615.35
2022-12-24T20:45:27.238Z,100602.39
2022-12-24T20:48:00.039Z,100616.66
2022-12-24T20:50:33.025Z,100618.14
2022-12-24T20:53:05.818Z,100626.42
2022-12-24T20:55:39.239Z,100633.73
2022-12-24T20:58:13.248Z,100632.81
2022-12-24T21:00:46.399Z,100629.48
2022-12-24T21:03:19.972Z,100625.80
2022-12-24T21:05:53.032Z,100631.79
2022-12-24T21:08:25.656Z,100628.33
2022-12-24T21:11:13.877Z,100629.01
2022-12-24T21:13:46.620Z,100633.76
2022-12-24T21:16:19.131Z,100629.59
2022-12-24T21:18:53.585Z,100622.38
2022-12-24T21:21:26.252Z,100622.30
2022-12-24T21:23:59.344Z,100625.16
2022-12-24T21:26:32.239Z,100622.63
2022-12-24T21:29:06.756Z,100623.06
2022-12-24T21:31:39.904Z,100621.99
2022-12-24T21:34:12.636Z,100624.86
2022-12-24T21:36:45.295Z,100628.16
2022-12-24T21:39:20.200Z,100607.20
2022-12-24T21:41:52.693Z,100628.55
2022-12-24T21:44:25.163Z,100631.45
2022-12-24T21:46:57.969Z,100629.83
2022-12-24T21:49:48.222Z,100630.61
2022-12-24T21:52:21.396Z,100633.75
2022-12-24T21:54:53.822Z,100632.52
2022-12-24T21:57:44.064Z,100634.98
2022-12-24T22:00:23.228Z,100632.24
2022-12-24T22:02:59.213Z,100633.80
2022-12-24T22:05:35.717Z,100617.08
2022-12-24T22:08:25.659Z,100612.41
2022-12-24T22:11:26.421Z,100632.36
2022-12-24T22:13:59.152Z,100645.89
2022-12-24T22:16:31.656Z,100645.92
2022-12-24T22:19:04.085Z,100647.52
2022-12-24T22:21:36.781Z,100644.52
2022-12-24T22:24:12.455Z,100641.95
2022-12-24T22:26:45.316Z,100645.77
2022-12-24T22:29:17.868Z,100650.12
2022-12-24T22:31:50.576Z,100653.35
2022-12-24T22:34:23.240Z,100655.45
2022-12-24T22:36:55.640Z,100664.69
2022-12-24T22:39:28.091Z,100661.28
2022-12-24T22:42:00.633Z,100660.36
2022-12-24T22:44:33.305Z,100616.65
2022-12-24T22:47:05.969Z,100678.14
2022-12-24T22:49:38.322Z,100686.77
2022-12-24T22:52:10.818Z,100685.30
2022-12-24T22:54:43.242Z,100682.48
2022-12-24T22:57:15.632Z,100666.55
2022-12-24T22:59:49.544Z,100692.60
2022-12-24T23:02:28.144Z,100695.65
2022-12-24T23:05:01.723Z,100697.31
2022-12-24T23:07:35.479Z,100702.17
2022-12-24T23:10:09.739Z,100707.47
2022-12-24T23:12:59.870Z,100713.04
2022-12-24T23:15:34.048Z,100715.55
2022-12-24T23:18:07.091Z,100717.01
2022-12-24T23:20:43.694Z,100717.04
2022-12-24T23:23:17.041Z,100725.98
2022-12-24T23:25:51.077Z,100721.70
2022-12-24T23:28:27.889Z,100743.41
2022-12-24T23:31:01.825Z,100751.34
2022-12-24T23:33:35.000Z,100751.87
2022-12-24T23:36:10.865Z,100750.96
2022-12-24T23:38:44.776Z,100754.50
2022-12-24T23:41:19.737Z,100757.79
2022-12-24T23:43:52.511Z,100760.75
2022-12-24T23:46:25.397Z,100757.70
2022-12-24T23:49:01.048Z,100761.59
2022-12-24T23:51:33.514Z,100764.03
2022-12-24T23:54:06.277Z,100763.02
2022-12-24T23:56:38.935Z,100772.18
2022-12-24T23:59:11.408Z,100780.73
